createdAt,value
2019-03-19T00:04:07.556Z,99.90
2019-03-19T00:06:55.617Z,99.90
2019-03-19T00:09:49.156Z,99.90
2019-03-19T00:12:30.912Z,99.90
2019-03-19T00:17:57.213Z,99.90
2019-03-19T00:23:19.204Z,99.90
2019-03-19T00:26:03.709Z,99.90
2019-03-19T00:28:47.104Z,99.90
2019-03-19T00:31:28.903Z,99.90
2019-03-19T00:34:10.449Z,99.90
2019-03-19T00:36:55.521Z,99.90
2019-03-19T00:39:36.993Z,99.90
2019-03-19T00:42:18.997Z,99.90
2019-03-19T00:45:00.251Z,99.90
2019-03-19T00:47:41.906Z,99.90
2019-03-19T00:50:23.837Z,99.90
2019-03-19T00:56:10.447Z,99.90
2019-03-19T00:58:56.382Z,99.90
2019-03-19T01:02:01.046Z,99.90
2019-03-19T01:05:20.418Z,99.90
2019-03-19T01:08:12.307Z,99.90
2019-03-19T01:13:38.019Z,99.90
2019-03-19T01:16:23.557Z,99.90
2019-03-19T01:19:14.055Z,99.90
2019-03-19T01:21:55.370Z,99.90
2019-03-19T01:24:36.961Z,99.90
2019-03-19T01:27:36.814Z,99.90
2019-03-19T01:30:22.521Z,99.90
2019-03-19T01:33:14.978Z,99.90
2019-03-19T01:35:47.711Z,99.90
2019-03-19T01:41:38.250Z,99.90
2019-03-19T01:44:25.735Z,99.90
2019-03-19T01:47:36.721Z,99.90
2019-03-19T01:49:37.045Z,99.90
2019-03-19T01:52:25.110Z,99.90
2019-03-19T01:55:13.188Z,99.90
2019-03-19T01:58:01.282Z,99.90
2019-03-19T02:00:49.348Z,99.90
2019-03-19T02:03:37.348Z,99.90
2019-03-19T02:06:25.448Z,99.90
2019-03-19T02:09:13.504Z,99.90
2019-03-19T02:12:01.598Z,99.90
2019-03-19T02:17:56.769Z,99.90
2019-03-19T02:20:44.808Z,99.90
2019-03-19T02:23:32.971Z,99.90
2019-03-19T02:26:21.036Z,99.90
2019-03-19T02:29:10.865Z,99.90
2019-03-19T02:31:59.052Z,99.90
2019-03-19T02:34:47.098Z,99.90
2019-03-19T02:37:35.158Z,99.90
2019-03-19T02:40:23.273Z,99.90
2019-03-19T02:43:13.065Z,99.90
2019-03-19T02:46:01.092Z,99.90
2019-03-19T02:48:49.140Z,99.90
2019-03-19T02:51:37.169Z,99.90
2019-03-19T02:54:25.211Z,99.90
2019-03-19T02:57:13.266Z,99.90
2019-03-19T03:00:01.424Z,99.90
2019-03-19T03:02:49.575Z,99.90
2019-03-19T03:05:37.683Z,99.90
2019-03-19T03:08:25.859Z,99.90
2019-03-19T03:11:07.052Z,99.90
2019-03-19T03:13:47.928Z,99.90
2019-03-19T03:16:28.593Z,99.90
2019-03-19T03:19:07.832Z,99.90
2019-03-19T03:21:55.893Z,99.90
2019-03-19T03:24:43.989Z,99.90
2019-03-19T03:27:32.077Z,99.90
2019-03-19T03:30:20.231Z,99.90
2019-03-19T03:33:08.321Z,99.90
2019-03-19T03:35:56.447Z,99.90
2019-03-19T03:38:44.594Z,99.90
2019-03-19T03:41:32.623Z,99.90
2019-03-19T03:44:22.414Z,99.90
2019-03-19T03:47:10.449Z,99.90
2019-03-19T03:49:58.594Z,99.90
2019-03-19T03:52:46.702Z,99.90
2019-03-19T03:55:34.795Z,99.90
2019-03-19T03:58:22.885Z,99.90
2019-03-19T04:01:11.023Z,99.90
2019-03-19T04:03:59.216Z,99.90
2019-03-19T04:06:47.297Z,99.90
2019-03-19T04:09:35.380Z,99.90
2019-03-19T04:12:23.392Z,99.90
2019-03-19T04:18:05.380Z,99.90
2019-03-19T04:20:46.550Z,99.90
2019-03-19T04:23:27.264Z,99.90
2019-03-19T04:26:08.121Z,99.90
2019-03-19T04:28:51.716Z,99.90
2019-03-19T04:31:32.203Z,99.90
2019-03-19T04:34:13.119Z,99.90
2019-03-19T04:36:53.705Z,99.90
2019-03-19T04:39:34.676Z,99.90
2019-03-19T04:42:15.361Z,99.90
2019-03-19T04:44:56.655Z,99.90
2019-03-19T04:47:37.471Z,99.90
2019-03-19T04:50:16.744Z,99.90
2019-03-19T04:53:16.599Z,99.90
2019-03-19T04:55:54.686Z,99.90
2019-03-19T04:58:42.803Z,99.90
2019-03-19T05:01:30.911Z,99.90
2019-03-19T05:04:19.037Z,99.90
2019-03-19T05:07:07.112Z,99.90
2019-03-19T05:09:55.260Z,99.90
2019-03-19T05:12:43.300Z,99.90
2019-03-19T05:15:31.459Z,99.90
2019-03-19T05:18:19.484Z,99.90
2019-03-19T05:21:07.547Z,99.90
2019-03-19T05:23:55.593Z,99.90
2019-03-19T05:26:43.599Z,99.90
2019-03-19T05:29:31.657Z,99.90
2019-03-19T05:32:19.680Z,99.90
2019-03-19T05:35:08.109Z,99.90
2019-03-19T05:37:56.187Z,99.90
2019-03-19T05:40:44.239Z,99.90
2019-03-19T05:43:32.292Z,99.90
2019-03-19T05:46:20.377Z,99.90
2019-03-19T05:49:08.431Z,99.90
2019-03-19T05:51:56.786Z,99.90
2019-03-19T05:54:44.900Z,99.90
2019-03-19T05:57:32.991Z,99.90
2019-03-19T06:03:29.986Z,99.90
2019-03-19T06:06:18.051Z,99.90
2019-03-19T06:09:07.539Z,99.90
2019-03-19T06:11:48.636Z,99.90
2019-03-19T06:14:29.509Z,99.90
2019-03-19T06:17:10.459Z,99.90
2019-03-19T06:19:51.165Z,99.90
2019-03-19T06:22:31.708Z,99.90
2019-03-19T06:25:12.523Z,99.90
2019-03-19T06:28:00.278Z,99.90
2019-03-19T06:30:35.436Z,99.90
2019-03-19T06:33:19.403Z,99.90
2019-03-19T06:35:59.891Z,99.90
2019-03-19T06:38:40.796Z,99.90
2019-03-19T06:41:21.640Z,99.90
2019-03-19T06:44:02.374Z,99.90
2019-03-19T06:46:43.058Z,99.90
2019-03-19T06:49:23.863Z,99.90
2019-03-19T06:52:04.892Z,99.90
2019-03-19T06:54:45.696Z,99.90
2019-03-19T06:57:26.594Z,99.90
2019-03-19T07:00:07.594Z,99.90
2019-03-19T07:05:30.560Z,99.90
2019-03-19T07:07:59.390Z,99.90
2019-03-19T07:10:28.291Z,99.90
2019-03-19T07:12:57.859Z,99.90
2019-03-19T07:15:46.202Z,99.90
2019-03-19T07:18:34.484Z,99.90
2019-03-19T07:21:22.587Z,99.90
2019-03-19T07:24:10.917Z,99.90
2019-03-19T07:26:59.062Z,99.90
2019-03-19T07:29:27.886Z,99.90
2019-03-19T07:32:16.053Z,99.90
2019-03-19T07:35:04.385Z,99.90
2019-03-19T07:37:52.554Z,99.90
2019-03-19T07:40:21.762Z,99.90
2019-03-19T07:43:09.960Z,99.90
2019-03-19T07:45:58.084Z,99.90
2019-03-19T07:48:46.467Z,99.90
2019-03-19T07:51:34.496Z,99.90
2019-03-19T07:54:22.551Z,99.90
2019-03-19T08:00:00.466Z,99.90
2019-03-19T08:02:48.656Z,99.90
2019-03-19T08:05:33.260Z,99.90
2019-03-19T08:08:12.436Z,99.90
2019-03-19T08:10:41.489Z,99.90
2019-03-19T08:13:10.647Z,99.90
2019-03-19T08:15:39.712Z,99.90
2019-03-19T08:18:08.843Z,99.90
2019-03-19T08:20:38.131Z,99.90
2019-03-19T08:23:26.240Z,99.90
2019-03-19T08:26:14.440Z,99.90
2019-03-19T08:29:02.703Z,99.90
2019-03-19T08:31:52.542Z,99.90
2019-03-19T08:34:40.871Z,99.90
2019-03-19T08:37:29.012Z,99.90
2019-03-19T08:40:17.141Z,99.90
2019-03-19T08:42:46.177Z,99.90
2019-03-19T08:45:15.067Z,99.90
2019-03-19T08:48:03.357Z,99.90
2019-03-19T08:50:51.401Z,99.90
2019-03-19T08:53:39.523Z,99.90
2019-03-19T08:56:27.579Z,99.90
2019-03-19T08:59:15.904Z,99.90
2019-03-19T09:02:04.120Z,99.90
2019-03-19T09:04:52.193Z,99.90
2019-03-19T09:07:40.370Z,99.90
2019-03-19T09:10:28.435Z,99.90
2019-03-19T09:15:51.782Z,99.90
2019-03-19T09:21:15.367Z,99.90
2019-03-19T09:23:56.558Z,99.90
2019-03-19T09:26:37.222Z,99.90
2019-03-19T09:29:18.357Z,99.90
2019-03-19T09:31:59.616Z,99.90
2019-03-19T09:34:40.511Z,99.90
2019-03-19T09:37:21.226Z,99.90
2019-03-19T09:40:01.690Z,99.90
2019-03-19T09:42:42.345Z,99.90
2019-03-19T09:45:23.118Z,99.90
2019-03-19T09:48:03.875Z,99.90
2019-03-19T09:50:43.014Z,99.90
2019-03-19T09:53:31.028Z,99.90
2019-03-19T09:56:19.114Z,99.90
2019-03-19T09:59:07.156Z,99.90
2019-03-19T10:01:55.233Z,99.90
2019-03-19T10:04:43.324Z,99.90
2019-03-19T10:07:31.434Z,91.40
2019-03-19T10:10:19.492Z,99.00
2019-03-19T10:13:07.530Z,98.70
2019-03-19T10:15:55.556Z,99.90
2019-03-19T10:18:43.585Z,96.60
2019-03-19T10:21:31.655Z,99.90
2019-03-19T10:24:19.684Z,99.90
2019-03-19T10:27:07.730Z,99.90
2019-03-19T10:29:55.952Z,99.90
2019-03-19T10:32:44.037Z,99.90
2019-03-19T10:35:32.116Z,99.90
2019-03-19T10:38:20.216Z,99.90
2019-03-19T10:41:08.266Z,99.90
2019-03-19T10:43:56.302Z,99.90
2019-03-19T10:46:36.802Z,99.90
2019-03-19T10:49:17.438Z,99.90
2019-03-19T10:51:58.057Z,99.90
2019-03-19T10:54:38.840Z,99.90
2019-03-19T10:57:19.500Z,99.90
2019-03-19T11:00:00.355Z,99.90
2019-03-19T11:02:41.628Z,96.60
2019-03-19T11:05:22.316Z,94.00
2019-03-19T11:08:03.118Z,88.80
2019-03-19T11:10:43.991Z,93.00
2019-03-19T11:13:25.002Z,94.10
2019-03-19T11:16:08.672Z,93.90
2019-03-19T11:18:49.467Z,81.30
2019-03-19T11:27:29.310Z,97.10
2019-03-19T11:30:10.432Z,94.50
2019-03-19T11:32:51.172Z,99.90
2019-03-19T11:35:31.685Z,99.90
2019-03-19T11:38:12.410Z,99.90
2019-03-19T11:40:53.270Z,99.90
2019-03-19T11:43:34.426Z,99.90
2019-03-19T11:46:15.232Z,99.90
2019-03-19T11:48:56.011Z,99.90
2019-03-19T11:51:37.008Z,99.90
2019-03-19T11:54:17.742Z,99.90
2019-03-19T11:56:58.397Z,99.90
2019-03-19T11:59:39.068Z,99.90
2019-03-19T12:02:25.958Z,99.90
2019-03-19T12:05:02.842Z,99.90
2019-03-19T12:07:43.317Z,99.90
2019-03-19T12:10:24.562Z,99.90
2019-03-19T12:13:05.052Z,87.80
2019-03-19T12:15:45.883Z,86.40
2019-03-19T12:18:26.590Z,93.80
2019-03-19T12:21:07.534Z,94.60
2019-03-19T12:23:43.706Z,89.90
2019-03-19T12:26:31.822Z,85.10
2019-03-19T12:29:20.540Z,83.60
2019-03-19T12:32:08.697Z,83.60
2019-03-19T12:34:57.069Z,83.40
2019-03-19T12:37:25.990Z,82.40
2019-03-19T12:39:54.820Z,76.80
2019-03-19T12:42:23.956Z,80.80
2019-03-19T12:45:05.069Z,78.40
2019-03-19T12:47:45.668Z,82.00
2019-03-19T12:50:26.721Z,83.10
2019-03-19T12:53:07.891Z,92.00
2019-03-19T12:55:48.969Z,99.90
2019-03-19T12:58:29.753Z,99.90
2019-03-19T13:01:10.590Z,99.90
2019-03-19T13:03:51.516Z,99.90
2019-03-19T13:06:32.868Z,99.90
2019-03-19T13:09:13.523Z,99.90
2019-03-19T13:11:54.461Z,99.90
2019-03-19T13:14:35.025Z,99.90
2019-03-19T13:17:15.935Z,99.90
2019-03-19T13:19:56.603Z,95.00
2019-03-19T13:22:37.133Z,95.30
2019-03-19T13:25:18.083Z,81.00
2019-03-19T13:27:58.829Z,76.60
2019-03-19T13:30:45.012Z,84.00
2019-03-19T13:33:22.328Z,90.30
2019-03-19T13:36:02.875Z,94.30
2019-03-19T13:38:43.730Z,95.90
2019-03-19T13:41:24.596Z,98.80
2019-03-19T13:44:05.323Z,99.90
2019-03-19T13:46:46.157Z,99.90
2019-03-19T13:49:26.664Z,99.90
2019-03-19T13:52:07.287Z,99.90
2019-03-19T13:54:47.996Z,99.90
2019-03-19T13:57:28.769Z,99.90
2019-03-19T14:00:09.591Z,99.90
2019-03-19T14:02:50.785Z,99.90
2019-03-19T14:05:31.444Z,99.90
2019-03-19T14:08:12.123Z,99.90
2019-03-19T14:10:54.270Z,99.90
2019-03-19T14:13:35.491Z,99.90
2019-03-19T14:16:16.851Z,99.90
2019-03-19T14:18:57.677Z,99.90
2019-03-19T14:21:38.408Z,99.90
2019-03-19T14:24:19.173Z,99.90
2019-03-19T14:26:59.855Z,99.90
2019-03-19T14:29:40.953Z,99.90
2019-03-19T14:32:21.752Z,99.90
2019-03-19T14:35:02.666Z,99.90
2019-03-19T14:37:43.463Z,99.90
2019-03-19T14:40:24.303Z,99.90
2019-03-19T14:43:05.167Z,99.90
2019-03-19T14:45:46.066Z,99.90
2019-03-19T14:48:26.962Z,99.90
2019-03-19T14:51:07.835Z,99.90
2019-03-19T14:53:48.821Z,99.90
2019-03-19T14:56:29.626Z,99.90
2019-03-19T14:59:10.408Z,92.50
2019-03-19T15:01:51.334Z,94.20
2019-03-19T15:04:32.504Z,88.70
2019-03-19T15:07:13.807Z,91.10
2019-03-19T15:09:54.317Z,97.60
2019-03-19T15:12:35.160Z,99.90
2019-03-19T15:15:15.887Z,99.90
2019-03-19T15:17:56.676Z,99.90
2019-03-19T15:20:37.334Z,99.90
2019-03-19T15:23:17.763Z,99.90
2019-03-19T15:25:59.433Z,99.90
2019-03-19T15:28:40.343Z,99.90
2019-03-19T15:31:29.577Z,99.90
2019-03-19T15:34:03.550Z,99.90
2019-03-19T15:36:43.998Z,99.90
2019-03-19T15:39:24.819Z,99.90
2019-03-19T15:42:05.771Z,99.90
2019-03-19T15:44:46.721Z,99.90
2019-03-19T15:47:27.472Z,99.90
2019-03-19T15:50:08.767Z,99.90
2019-03-19T15:52:49.725Z,99.90
2019-03-19T15:55:30.074Z,99.90
2019-03-19T15:58:10.940Z,99.90
2019-03-19T16:00:51.760Z,99.90
2019-03-19T16:03:32.401Z,99.90
2019-03-19T16:06:11.508Z,99.90
2019-03-19T16:08:59.608Z,99.90
2019-03-19T16:11:47.646Z,99.90
2019-03-19T16:14:35.715Z,99.90
2019-03-19T16:17:23.763Z,99.90
2019-03-19T16:20:12.614Z,99.90
2019-03-19T16:23:00.766Z,99.90
2019-03-19T16:25:48.830Z,99.90
